Terminal Aerodrome Forecast
Issued by NWS Shreveport, LA

Home | Current Version | Previous Version | Text Only | Print | Product List | Glossary On
Versions: 1 2 3 4 5 6 7 8 9 10 11 12 13
000
FTUS44 KSHV 270529
TAFSHV
TAF
KSHV 270529Z 2706/2806 VRB04KT P6SM SCT300
     FM270900 00000KT 5SM BR FEW020 SCT050
      TEMPO 2712/2715 3SM BR BKN015
     FM271500 04005KT P6SM FEW015 BKN035
     FM271900 07008KT P6SM SCT040 BKN100
     FM280000 11005KT P6SM SCT250=

USA.gov is the U.S. government's official web portal to all federal, state and local government web resources and services.